Freeport, MI (49325)

3:08 AM EST on January 18, 2017 (GMT -0500)
Thornapple/Irving Township | | Change Station
Active Advisory: Flood Advisory

Elev 804 ft 42.76 °N, 85.43 °W | Updated 9 seconds ago

Overcast
Overcast
34.9 °F
Feels Like 27 °F
N
11.5
Wind Variable Wind from WSW
Gusts 11.5 mph

Today
High -- | Low -- °F
--% Chance of Precip.
Yesterday
High -- | Low -- °F
Precip. -- in
Pressure 29.99 in
Visibility 1.5 miles
Clouds Overcast 200 ft
Windchill 27 °F
Dew Point 34 °F
Humidity 96%
Rainfall 0.00 in
Snow Depth Not available.
8:07 AM 5:36 PM
Waning Gibbous, 65% visible
METAR KGRR 180753Z AUTO 27007KT 1 1/2SM BR OVC002 02/01 A2996 RMK AO2 SLP153 T00220011
Pressure 29.99 in
Visibility 1.5 miles
Clouds Overcast 200 ft
Windchill 27 °F
Dew Point 34 °F
Humidity 96%
Rainfall 0.00 in
Snow Depth Not available.
8:07 AM 5:36 PM
Waning Gibbous, 65% visible
METAR KGRR 180753Z AUTO 27007KT 1 1/2SM BR OVC002 02/01 A2996 RMK AO2 SLP153 T00220011

Get Your Daily Forecast Email!

Thanks for signing up!

Be on the lookout for a verification email in your inbox.

You'll start receiving the daily forecast at 8 AM.

×

10-Day Weather Forecast

Almanac

Astronomy

Jan. 18, 2017 Rise Set
Actual Time
Civil Twilight
Nautical Twilight
Astronomical Twilight
Moon
Length of Visible Light
Length of Day
Tomorrow will be .
, % of the Moon is Illuminated

Today's Extremes

State Highs State Lows

Community

WunderPhotos

Upload Photos

1,962,540 photos uploaded!

WunderBlog® & News

Nearby

Air Quality

  Air Quality AQ Index Pollutant
Not available.

Snow Depth

Station Depth Elevation

Earthquake Activity

City Distance Mag. Time & Date
Minimum magnitude displayed is 2.5.

Coastal Water Temperatures

Place Temperature

Stations

Nearby Weather Stations

Station Location Temp. Windchill Dew Point Humidity Wind Precip. Elev Updated Type
                   

Watches & Warnings

Flood Advisory
Issued: 9:29 PM EST Jan. 17, 2017 – National Weather Service

The Flood Advisory continues for
the Thornapple river above Hastings
* until further notice.
* At 09 PM Tuesday the stage was 5.0 feet.
* Bankfull stage is 5.0 feet.
* Flood stage is 7.0 feet.
* Forecast, the river will rise to near 6.3 feet by Sunday morning.
* Impact, at 7.0 feet... expect minor flooding of tyden park in
Hastings, and homes upstream and downstream of Hastings.


Lat... Lon 4268 8550 4259 8523 4260 8516 4266 8517
      4265 8524 4273 8541